createdAt,value
2018-04-20T00:00:41.941Z,9.57
2018-04-20T00:01:41.976Z,9.57
2018-04-20T00:02:41.875Z,9.57
2018-04-20T00:03:41.982Z,9.57
2018-04-20T00:04:41.995Z,9.55
2018-04-20T00:05:41.987Z,9.55
2018-04-20T00:06:41.999Z,9.54
2018-04-20T00:07:41.921Z,9.53
2018-04-20T00:08:41.993Z,9.54
2018-04-20T00:09:41.967Z,9.54
2018-04-20T00:10:41.929Z,9.54
2018-04-20T00:11:41.999Z,9.62
2018-04-20T00:12:41.984Z,9.72
2018-04-20T00:13:41.895Z,9.82
2018-04-20T00:14:41.911Z,9.89
2018-04-20T00:15:41.893Z,9.93
2018-04-20T00:16:41.970Z,9.94
2018-04-20T00:17:41.973Z,9.98
2018-04-20T00:18:41.933Z,9.95
2018-04-20T00:19:41.958Z,9.89
2018-04-20T00:20:41.977Z,9.86
2018-04-20T00:21:41.918Z,9.80
2018-04-20T00:22:41.989Z,9.78
2018-04-20T00:23:41.942Z,9.78
2018-04-20T00:24:41.941Z,9.78
2018-04-20T00:25:41.978Z,9.75
2018-04-20T00:26:41.971Z,9.69
2018-04-20T00:27:41.970Z,9.66
2018-04-20T00:28:41.966Z,9.64
2018-04-20T00:29:41.909Z,9.58
2018-04-20T00:30:42.002Z,9.53
2018-04-20T00:31:41.940Z,9.47
2018-04-20T00:32:41.890Z,9.42
2018-04-20T00:33:42.008Z,9.40
2018-04-20T00:34:42.009Z,9.39
2018-04-20T00:35:41.951Z,9.32
2018-04-20T00:36:41.937Z,9.32
2018-04-20T00:37:41.939Z,9.28
2018-04-20T00:38:41.984Z,9.23
2018-04-20T00:39:41.900Z,9.20
2018-04-20T00:40:41.899Z,9.19
2018-04-20T00:41:42.008Z,9.19
2018-04-20T00:42:41.950Z,9.19
2018-04-20T00:43:41.990Z,9.18
2018-04-20T00:44:41.915Z,9.15
2018-04-20T00:45:41.917Z,9.16
2018-04-20T00:46:41.988Z,9.18
2018-04-20T00:47:41.986Z,9.16
2018-04-20T00:48:41.918Z,9.16
2018-04-20T00:49:41.986Z,9.19
2018-04-20T00:50:41.917Z,9.16
2018-04-20T00:51:41.918Z,9.15
2018-04-20T00:52:41.990Z,9.12
2018-04-20T00:53:42.021Z,9.11
2018-04-20T00:54:41.989Z,9.09
2018-04-20T00:55:42.027Z,9.09
2018-04-20T00:56:42.020Z,9.05
2018-04-20T00:57:42.000Z,9.05
2018-04-20T00:58:41.997Z,9.00
2018-04-20T00:59:41.974Z,8.98
2018-04-20T01:00:41.999Z,8.96
2018-04-20T01:01:41.958Z,8.91
2018-04-20T01:02:41.994Z,8.86
2018-04-20T01:03:41.916Z,8.80
2018-04-20T01:04:41.945Z,8.80
2018-04-20T01:05:41.952Z,8.76
2018-04-20T01:06:41.918Z,8.76
2018-04-20T01:07:41.965Z,8.78
2018-04-20T01:08:41.855Z,8.78
2018-04-20T01:09:41.948Z,8.79
2018-04-20T01:10:41.913Z,8.79
2018-04-20T01:11:41.918Z,8.78
2018-04-20T01:12:41.914Z,8.78
2018-04-20T01:13:42.019Z,8.78
2018-04-20T01:14:41.930Z,8.75
2018-04-20T01:15:42.008Z,8.75
2018-04-20T01:16:41.939Z,8.74
2018-04-20T01:17:42.007Z,8.71
2018-04-20T01:18:41.998Z,8.74
2018-04-20T01:19:41.935Z,8.72
2018-04-20T01:20:41.931Z,8.78
2018-04-20T01:21:41.935Z,8.82
2018-04-20T01:22:42.013Z,8.82
2018-04-20T01:23:41.976Z,8.82
2018-04-20T01:24:41.983Z,8.79
2018-04-20T01:25:42.005Z,8.75
2018-04-20T01:26:41.947Z,8.72
2018-04-20T01:27:41.927Z,8.71
2018-04-20T01:28:42.035Z,8.72
2018-04-20T01:29:42.048Z,8.82
2018-04-20T01:30:42.039Z,8.89
2018-04-20T01:31:41.986Z,8.86
2018-04-20T01:32:41.949Z,8.83
2018-04-20T01:33:42.017Z,8.80
2018-04-20T01:34:42.049Z,8.78
2018-04-20T01:35:41.947Z,8.74
2018-04-20T01:36:42.038Z,8.68
2018-04-20T01:37:42.011Z,8.62
2018-04-20T01:38:42.039Z,8.54
2018-04-20T01:39:42.086Z,8.49
2018-04-20T01:40:42.027Z,8.43
2018-04-20T01:41:41.919Z,8.39
2018-04-20T01:42:42.040Z,8.37
2018-04-20T01:43:42.079Z,8.39
2018-04-20T01:44:42.037Z,8.37
2018-04-20T01:45:41.953Z,8.49
2018-04-20T01:46:42.017Z,8.56
2018-04-20T01:47:41.987Z,8.57
2018-04-20T01:48:42.042Z,8.53
2018-04-20T01:49:42.012Z,8.54
2018-04-20T01:50:42.020Z,8.53
2018-04-20T01:51:41.938Z,8.50
2018-04-20T01:52:41.996Z,8.49
2018-04-20T01:53:42.021Z,8.42
2018-04-20T01:54:41.945Z,8.38
2018-04-20T01:55:42.023Z,8.38
2018-04-20T01:56:41.961Z,8.47
2018-04-20T01:57:42.018Z,8.54
2018-04-20T01:58:41.950Z,8.54
2018-04-20T01:59:42.022Z,8.51
2018-04-20T02:00:41.947Z,8.45
2018-04-20T02:01:42.020Z,8.42
2018-04-20T02:02:41.954Z,8.37
2018-04-20T02:03:41.957Z,8.31
2018-04-20T02:04:41.960Z,8.27
2018-04-20T02:05:42.038Z,8.23
2018-04-20T02:06:41.923Z,8.20
2018-04-20T02:07:41.961Z,8.20
2018-04-20T02:08:41.963Z,8.19
2018-04-20T02:09:42.037Z,8.17
2018-04-20T02:10:42.042Z,8.15
2018-04-20T02:11:41.965Z,8.11
2018-04-20T02:12:42.040Z,8.09
2018-04-20T02:13:41.994Z,8.06
2018-04-20T02:14:42.057Z,8.06
2018-04-20T02:15:42.043Z,8.05
2018-04-20T02:16:41.954Z,8.04
2018-04-20T02:17:42.001Z,8.02
2018-04-20T02:18:42.075Z,8.02
2018-04-20T02:19:41.963Z,8.02
2018-04-20T02:20:42.064Z,8.02
2018-04-20T02:21:42.005Z,8.05
2018-04-20T02:22:41.961Z,8.06
2018-04-20T02:23:41.933Z,8.05
2018-04-20T02:24:42.049Z,8.08
2018-04-20T02:25:42.048Z,8.06
2018-04-20T02:26:42.055Z,8.04
2018-04-20T02:27:42.054Z,8.05
2018-04-20T02:28:41.980Z,8.04
2018-04-20T02:29:42.052Z,8.02
2018-04-20T02:30:41.978Z,8.01
2018-04-20T02:31:42.054Z,7.98
2018-04-20T02:32:41.996Z,7.93
2018-04-20T02:33:42.016Z,7.90
2018-04-20T02:34:42.071Z,7.86
2018-04-20T02:35:41.971Z,7.82
2018-04-20T02:36:41.956Z,7.89
2018-04-20T02:37:42.090Z,8.01
2018-04-20T02:38:42.118Z,8.01
2018-04-20T02:39:42.068Z,7.97
2018-04-20T02:40:41.971Z,7.92
2018-04-20T02:41:41.998Z,7.93
2018-04-20T02:42:42.054Z,7.90
2018-04-20T02:43:42.009Z,7.83
2018-04-20T02:44:42.063Z,7.81
2018-04-20T02:45:41.989Z,7.75
2018-04-20T02:46:42.070Z,7.75
2018-04-20T02:47:42.026Z,7.76
2018-04-20T02:48:42.065Z,7.78
2018-04-20T02:49:42.069Z,7.81
2018-04-20T02:50:41.990Z,7.79
2018-04-20T02:51:42.072Z,7.83
2018-04-20T02:52:42.068Z,7.83
2018-04-20T02:53:42.062Z,7.86
2018-04-20T02:54:42.063Z,7.83
2018-04-20T02:55:42.060Z,7.81
2018-04-20T02:56:42.131Z,7.76
2018-04-20T02:57:42.097Z,7.74
2018-04-20T02:58:42.139Z,7.72
2018-04-20T02:59:42.031Z,7.71
2018-04-20T03:00:42.076Z,7.70
2018-04-20T03:01:42.098Z,7.70
2018-04-20T03:02:42.128Z,7.68
2018-04-20T03:03:42.041Z,7.70
2018-04-20T03:04:42.134Z,7.70
2018-04-20T03:05:42.073Z,7.67
2018-04-20T03:06:42.100Z,7.68
2018-04-20T03:07:42.069Z,7.65
2018-04-20T03:08:42.141Z,7.67
2018-04-20T03:09:42.099Z,7.72
2018-04-20T03:10:42.011Z,7.76
2018-04-20T03:11:41.992Z,7.89
2018-04-20T03:12:42.054Z,7.99
2018-04-20T03:13:42.040Z,8.11
2018-04-20T03:14:41.998Z,8.19
2018-04-20T03:15:42.075Z,8.26
2018-04-20T03:16:42.092Z,8.24
2018-04-20T03:17:41.981Z,8.27
2018-04-20T03:18:42.110Z,8.26
2018-04-20T03:19:42.082Z,8.28
2018-04-20T03:20:42.043Z,8.30
2018-04-20T03:21:42.078Z,8.35
2018-04-20T03:22:42.080Z,8.39
2018-04-20T03:23:42.003Z,8.38
2018-04-20T03:24:42.076Z,8.35
2018-04-20T03:25:42.003Z,8.37
2018-04-20T03:26:42.082Z,8.34
2018-04-20T03:27:42.077Z,8.30
2018-04-20T03:28:42.076Z,8.27
2018-04-20T03:29:42.008Z,8.26
2018-04-20T03:30:42.008Z,8.23
2018-04-20T03:31:42.079Z,8.19
2018-04-20T03:32:42.008Z,8.13
2018-04-20T03:33:42.088Z,8.06
2018-04-20T03:34:42.063Z,8.01
2018-04-20T03:35:42.026Z,7.98
2018-04-20T03:36:42.014Z,7.93
2018-04-20T03:37:42.055Z,7.90
2018-04-20T03:38:42.059Z,7.89
2018-04-20T03:39:42.091Z,7.89
2018-04-20T03:40:42.103Z,7.90
2018-04-20T03:41:42.125Z,7.90
2018-04-20T03:42:42.130Z,7.86
2018-04-20T03:43:42.103Z,7.85
2018-04-20T03:44:42.103Z,7.82
2018-04-20T03:45:42.026Z,7.76
2018-04-20T03:46:42.106Z,7.76
2018-04-20T03:47:42.107Z,7.75
2018-04-20T03:48:42.103Z,7.79
2018-04-20T03:49:41.998Z,7.79
2018-04-20T03:50:42.105Z,7.78
2018-04-20T03:51:42.102Z,7.74
2018-04-20T03:52:42.106Z,7.81
2018-04-20T03:53:42.032Z,7.82
2018-04-20T03:54:42.032Z,7.82
2018-04-20T03:55:42.032Z,7.89
2018-04-20T03:56:42.038Z,7.93
2018-04-20T03:57:42.036Z,7.90
2018-04-20T03:58:42.036Z,7.95
2018-04-20T03:59:42.112Z,7.90
2018-04-20T04:00:42.148Z,7.86
2018-04-20T04:01:42.114Z,7.86
2018-04-20T04:02:42.113Z,7.92
2018-04-20T04:03:42.027Z,7.93
2018-04-20T04:04:42.098Z,7.93
2018-04-20T04:05:42.035Z,8.01
2018-04-20T04:06:42.113Z,8.13
2018-04-20T04:07:42.030Z,8.15
2018-04-20T04:08:42.106Z,8.15
2018-04-20T04:09:42.035Z,8.17
2018-04-20T04:10:42.105Z,8.24
2018-04-20T04:11:42.031Z,8.31
2018-04-20T04:12:42.127Z,8.39
2018-04-20T04:13:42.083Z,8.45
2018-04-20T04:14:42.148Z,8.45
2018-04-20T04:15:42.250Z,8.45
2018-04-20T04:16:42.090Z,8.45
2018-04-20T04:17:42.249Z,8.46
2018-04-20T04:18:42.100Z,8.47
2018-04-20T04:19:42.031Z,8.47
2018-04-20T04:20:42.022Z,8.43
2018-04-20T04:21:42.078Z,8.42
2018-04-20T04:22:42.054Z,8.35
2018-04-20T04:23:42.079Z,8.34
2018-04-20T04:24:42.094Z,8.35
2018-04-20T04:25:42.160Z,8.35
2018-04-20T04:26:42.094Z,8.31
2018-04-20T04:27:42.090Z,8.31
2018-04-20T04:28:42.128Z,8.30
2018-04-20T04:29:42.122Z,8.24
2018-04-20T04:30:42.084Z,8.22
2018-04-20T04:31:42.092Z,8.16
2018-04-20T04:32:42.119Z,8.15
2018-04-20T04:33:42.104Z,8.11
2018-04-20T04:34:41.993Z,8.11
2018-04-20T04:35:42.111Z,8.11
2018-04-20T04:36:42.067Z,8.08
2018-04-20T04:37:42.116Z,8.11
2018-04-20T04:38:42.061Z,8.13
2018-04-20T04:39:42.109Z,8.17
2018-04-20T04:40:42.088Z,8.24
2018-04-20T04:41:42.110Z,8.26
2018-04-20T04:42:42.031Z,8.27
2018-04-20T04:43:42.152Z,8.27
2018-04-20T04:44:42.146Z,8.23
2018-04-20T04:45:42.225Z,8.23
2018-04-20T04:46:42.104Z,8.26
2018-04-20T04:47:42.114Z,8.26
2018-04-20T04:48:42.143Z,8.31
2018-04-20T04:49:42.053Z,8.33
2018-04-20T04:50:42.113Z,8.34
2018-04-20T04:51:42.055Z,8.33
2018-04-20T04:52:42.054Z,8.30
2018-04-20T04:53:42.131Z,8.28
2018-04-20T04:54:42.039Z,8.31
2018-04-20T04:55:42.131Z,8.37
2018-04-20T04:56:42.126Z,8.45
2018-04-20T04:57:42.055Z,8.54
2018-04-20T04:58:42.142Z,8.56
2018-04-20T04:59:42.044Z,8.57
2018-04-20T05:00:42.098Z,8.54
2018-04-20T05:01:42.127Z,8.53
2018-04-20T05:02:42.063Z,8.49
2018-04-20T05:03:42.002Z,8.50
2018-04-20T05:04:41.999Z,8.54
2018-04-20T05:05:42.048Z,8.57
2018-04-20T05:06:42.050Z,8.53
2018-04-20T05:07:42.047Z,8.51
2018-04-20T05:08:42.097Z,8.46
2018-04-20T05:09:42.002Z,8.39
2018-04-20T05:10:42.005Z,8.38
2018-04-20T05:11:42.002Z,8.35
2018-04-20T05:12:42.115Z,8.35
2018-04-20T05:13:42.093Z,8.37
2018-04-20T05:14:42.143Z,8.38
2018-04-20T05:15:42.142Z,8.46
2018-04-20T05:16:42.056Z,8.47
2018-04-20T05:17:42.111Z,8.51
2018-04-20T05:18:42.145Z,8.57
2018-04-20T05:19:42.072Z,8.60
2018-04-20T05:20:42.059Z,8.60
2018-04-20T05:21:42.075Z,8.64
2018-04-20T05:22:42.098Z,8.67
2018-04-20T05:23:42.145Z,8.74
2018-04-20T05:24:42.045Z,8.83
2018-04-20T05:25:42.138Z,8.90
2018-04-20T05:26:42.145Z,8.98
2018-04-20T05:27:42.082Z,9.07
2018-04-20T05:28:42.034Z,9.15
2018-04-20T05:29:42.090Z,9.20
2018-04-20T05:30:42.100Z,9.31
2018-04-20T05:31:42.096Z,9.39
2018-04-20T05:32:42.145Z,9.44
2018-04-20T05:33:42.063Z,9.51
2018-04-20T05:34:42.166Z,9.53
2018-04-20T05:35:42.093Z,9.57
2018-04-20T05:36:42.167Z,9.61
2018-04-20T05:37:42.094Z,9.65
2018-04-20T05:38:42.100Z,9.68
2018-04-20T05:39:42.095Z,9.72
2018-04-20T05:40:42.129Z,9.78
2018-04-20T05:41:42.167Z,9.82
2018-04-20T05:42:42.167Z,9.84
2018-04-20T05:43:42.174Z,9.87
2018-04-20T05:44:42.224Z,9.93
2018-04-20T05:45:42.148Z,9.95
2018-04-20T05:46:42.193Z,9.98
2018-04-20T05:47:42.144Z,10.02
2018-04-20T05:48:42.171Z,10.06
2018-04-20T05:49:42.126Z,10.17
2018-04-20T05:50:42.156Z,10.30
2018-04-20T05:51:42.172Z,10.42
2018-04-20T05:52:42.179Z,10.54
2018-04-20T05:53:42.140Z,10.67
2018-04-20T05:54:42.105Z,10.77
2018-04-20T05:55:42.163Z,10.88
2018-04-20T05:56:42.141Z,11.00
2018-04-20T05:57:42.081Z,11.02
2018-04-20T05:58:42.163Z,11.11
2018-04-20T05:59:42.138Z,11.20
2018-04-20T06:00:42.173Z,11.24
2018-04-20T06:01:42.170Z,11.31
2018-04-20T06:02:42.123Z,11.42
2018-04-20T06:03:42.173Z,11.53
2018-04-20T06:04:42.104Z,11.62
2018-04-20T06:05:42.162Z,11.62
2018-04-20T06:06:42.181Z,11.68
2018-04-20T06:07:42.223Z,11.75
2018-04-20T06:08:42.266Z,11.79
2018-04-20T06:09:42.206Z,11.92
2018-04-20T06:10:42.154Z,11.97
2018-04-20T06:11:42.226Z,11.97
2018-04-20T06:12:42.181Z,12.02
2018-04-20T06:13:42.122Z,12.01
2018-04-20T06:14:42.117Z,12.01
2018-04-20T06:15:42.232Z,12.02
2018-04-20T06:16:42.189Z,12.05
2018-04-20T06:17:42.234Z,12.18
2018-04-20T06:18:42.120Z,12.26
2018-04-20T06:19:42.228Z,12.33
2018-04-20T06:20:42.125Z,12.39
2018-04-20T06:21:42.195Z,12.50
2018-04-20T06:22:42.081Z,12.66
2018-04-20T06:23:42.122Z,12.71
2018-04-20T06:24:42.194Z,12.77
2018-04-20T06:25:42.198Z,12.84
2018-04-20T06:26:42.133Z,12.95
2018-04-20T06:27:42.196Z,13.05
2018-04-20T06:28:42.125Z,13.00
2018-04-20T06:29:42.222Z,13.05
2018-04-20T06:30:42.204Z,12.99
2018-04-20T06:31:42.129Z,12.99
2018-04-20T06:32:42.129Z,13.00
2018-04-20T06:33:42.199Z,13.02
2018-04-20T06:34:42.158Z,13.06
2018-04-20T06:35:42.126Z,13.09
2018-04-20T06:36:42.086Z,13.13
2018-04-20T06:37:42.195Z,13.24
2018-04-20T06:38:42.194Z,13.36
2018-04-20T06:39:42.198Z,13.47
2018-04-20T06:40:42.196Z,13.59
2018-04-20T06:41:42.238Z,13.69
2018-04-20T06:42:42.124Z,13.89
2018-04-20T06:43:42.108Z,13.91
2018-04-20T06:44:42.213Z,13.95
2018-04-20T06:45:42.135Z,14.03
2018-04-20T06:46:42.211Z,14.11
2018-04-20T06:47:42.245Z,14.21
2018-04-20T06:48:42.139Z,14.28
2018-04-20T06:49:42.212Z,14.42
2018-04-20T06:50:42.211Z,14.53
2018-04-20T06:51:42.213Z,14.72
2018-04-20T06:52:42.141Z,14.89
2018-04-20T06:53:42.217Z,14.96
2018-04-20T06:54:42.177Z,15.04
2018-04-20T06:55:42.244Z,15.15
2018-04-20T06:56:42.241Z,15.31
2018-04-20T06:57:42.232Z,15.32
2018-04-20T06:58:42.120Z,15.28
2018-04-20T06:59:42.133Z,15.37
2018-04-20T07:00:42.158Z,15.43
2018-04-20T07:01:42.253Z,15.48
2018-04-20T07:02:42.141Z,15.57
2018-04-20T07:03:42.242Z,15.65
2018-04-20T07:04:42.221Z,15.66
2018-04-20T07:05:42.183Z,15.68
2018-04-20T07:06:42.240Z,15.77
2018-04-20T07:07:42.284Z,15.80
2018-04-20T07:08:42.219Z,15.82
2018-04-20T07:09:42.261Z,15.93
2018-04-20T07:10:42.259Z,15.88
2018-04-20T07:11:42.242Z,15.80
2018-04-20T07:12:42.194Z,15.83
2018-04-20T07:13:42.245Z,15.95
2018-04-20T07:14:42.224Z,15.94
2018-04-20T07:15:42.143Z,16.03
2018-04-20T07:16:42.221Z,16.25
2018-04-20T07:17:42.219Z,16.52
2018-04-20T07:18:42.219Z,16.70
2018-04-20T07:19:42.174Z,16.84
2018-04-20T07:20:42.229Z,16.95
2018-04-20T07:21:42.155Z,17.03
2018-04-20T07:22:42.103Z,17.02
2018-04-20T07:23:42.199Z,16.95
2018-04-20T07:24:42.265Z,17.02
2018-04-20T07:25:42.155Z,17.12
2018-04-20T07:26:42.238Z,17.22
2018-04-20T07:27:42.251Z,17.13
2018-04-20T07:28:42.258Z,17.22
2018-04-20T07:29:42.197Z,17.20
2018-04-20T07:30:42.153Z,17.16
2018-04-20T07:31:42.240Z,17.18
2018-04-20T07:32:42.160Z,17.21
2018-04-20T07:33:42.267Z,17.25
2018-04-20T07:34:42.206Z,17.25
2018-04-20T07:35:42.196Z,17.25
2018-04-20T07:36:42.160Z,17.35
2018-04-20T07:37:42.242Z,17.44
2018-04-20T07:38:42.279Z,17.53
2018-04-20T07:39:42.294Z,17.60
2018-04-20T07:40:42.265Z,17.72
2018-04-20T07:41:42.158Z,17.71
2018-04-20T07:42:42.220Z,17.61
2018-04-20T07:43:42.288Z,17.68
2018-04-20T07:44:42.248Z,17.72
2018-04-20T07:45:42.174Z,17.84
2018-04-20T07:46:42.248Z,17.96
2018-04-20T07:47:42.240Z,18.09
2018-04-20T07:48:42.177Z,18.23
2018-04-20T07:49:42.179Z,18.21
2018-04-20T07:50:42.177Z,18.14
2018-04-20T07:51:42.249Z,18.23
2018-04-20T07:52:42.178Z,18.43
2018-04-20T07:53:42.269Z,18.57
2018-04-20T07:54:42.183Z,18.69
2018-04-20T07:55:42.183Z,18.83
2018-04-20T07:56:42.264Z,18.94
2018-04-20T07:57:42.254Z,18.95
2018-04-20T07:58:42.255Z,18.99
2018-04-20T07:59:42.185Z,19.13
2018-04-20T08:00:42.262Z,19.25
2018-04-20T08:01:42.186Z,19.13
2018-04-20T08:02:42.184Z,19.06
2018-04-20T08:03:42.151Z,19.21
2018-04-20T08:04:42.232Z,19.49
2018-04-20T08:05:42.281Z,19.55
2018-04-20T08:06:42.281Z,19.54
2018-04-20T08:07:42.176Z,19.60
2018-04-20T08:08:42.227Z,19.73
2018-04-20T08:09:42.159Z,19.79
2018-04-20T08:10:42.333Z,19.90
2018-04-20T08:11:42.219Z,20.03
2018-04-20T08:12:42.294Z,20.07
2018-04-20T08:13:42.189Z,20.12
2018-04-20T08:14:42.168Z,20.06
2018-04-20T08:15:42.137Z,20.16
2018-04-20T08:16:42.256Z,20.41
2018-04-20T08:17:42.258Z,20.52
2018-04-20T08:18:42.140Z,20.69
2018-04-20T08:19:42.227Z,20.79
2018-04-20T08:20:42.172Z,20.91
2018-04-20T08:21:42.139Z,21.05
2018-04-20T08:22:42.236Z,21.21
2018-04-20T08:23:42.192Z,21.32
2018-04-20T08:24:42.293Z,21.43
2018-04-20T08:25:42.268Z,21.36
2018-04-20T08:26:42.296Z,21.49
2018-04-20T08:27:42.268Z,21.56
2018-04-20T08:28:42.244Z,21.73
2018-04-20T08:29:42.233Z,21.94
2018-04-20T08:30:42.311Z,22.06
2018-04-20T08:31:42.233Z,22.10
2018-04-20T08:32:42.270Z,22.02
2018-04-20T08:33:42.241Z,22.02
2018-04-20T08:34:42.283Z,22.08
2018-04-20T08:35:42.314Z,22.17
2018-04-20T08:36:42.295Z,22.32
2018-04-20T08:37:42.273Z,22.24
2018-04-20T08:38:42.281Z,22.21
2018-04-20T08:39:42.214Z,22.31
2018-04-20T08:40:42.316Z,22.25
2018-04-20T08:41:42.300Z,22.20
2018-04-20T08:42:42.242Z,22.34
2018-04-20T08:43:42.281Z,22.31
2018-04-20T08:44:42.239Z,22.48
2018-04-20T08:45:42.207Z,22.41
2018-04-20T08:46:42.276Z,22.16
2018-04-20T08:47:42.203Z,22.24
2018-04-20T08:48:42.256Z,22.38
2018-04-20T08:49:42.260Z,22.52
2018-04-20T08:50:42.289Z,22.59
2018-04-20T08:51:42.287Z,22.63
2018-04-20T08:52:42.261Z,22.79
2018-04-20T08:53:42.224Z,22.86
2018-04-20T08:54:42.294Z,22.95
2018-04-20T08:55:42.219Z,23.13
2018-04-20T08:56:42.222Z,23.20
2018-04-20T08:57:42.285Z,23.22
2018-04-20T08:58:42.223Z,23.26
2018-04-20T08:59:42.222Z,23.41
2018-04-20T09:00:42.294Z,23.41
2018-04-20T09:01:42.257Z,23.45
2018-04-20T09:02:42.296Z,23.56
2018-04-20T09:03:42.225Z,23.61
2018-04-20T09:04:42.199Z,23.82
2018-04-20T09:05:42.294Z,23.82
2018-04-20T09:06:42.230Z,23.85
2018-04-20T09:07:42.296Z,23.82
2018-04-20T09:08:42.237Z,23.89
2018-04-20T09:09:42.265Z,24.00
2018-04-20T09:10:42.309Z,24.00
2018-04-20T09:11:42.276Z,24.16
2018-04-20T09:12:42.318Z,24.02
2018-04-20T09:13:42.267Z,23.89
2018-04-20T09:14:42.205Z,23.82
2018-04-20T09:15:42.300Z,23.85
2018-04-20T09:16:42.298Z,24.04
2018-04-20T09:17:42.206Z,24.12
2018-04-20T09:18:42.327Z,24.08
2018-04-20T09:19:42.336Z,23.94
2018-04-20T09:20:42.337Z,24.09
2018-04-20T09:21:42.242Z,24.25
2018-04-20T09:22:42.341Z,24.40
2018-04-20T09:23:42.302Z,24.31
2018-04-20T09:24:42.209Z,24.11
2018-04-20T09:25:42.298Z,24.19
2018-04-20T09:26:42.196Z,24.04
2018-04-20T09:27:42.303Z,24.15
2018-04-20T09:28:42.182Z,24.15
2018-04-20T09:29:42.296Z,24.27
2018-04-20T09:30:42.307Z,24.56
2018-04-20T09:31:42.234Z,24.68
2018-04-20T09:32:42.198Z,24.79
2018-04-20T09:33:42.306Z,24.75
2018-04-20T09:34:42.313Z,24.86
2018-04-20T09:35:42.291Z,24.98
2018-04-20T09:36:42.232Z,25.20
2018-04-20T09:37:42.235Z,25.30
2018-04-20T09:38:42.352Z,25.52
2018-04-20T09:39:42.381Z,25.60
2018-04-20T09:40:42.353Z,25.52
2018-04-20T09:41:42.222Z,25.49
2018-04-20T09:42:42.315Z,25.53
2018-04-20T09:43:42.313Z,25.60
2018-04-20T09:44:42.313Z,25.57
2018-04-20T09:45:42.313Z,25.77
2018-04-20T09:46:42.313Z,25.81
2018-04-20T09:47:42.194Z,26.00
2018-04-20T09:48:42.310Z,25.97
2018-04-20T09:49:42.189Z,25.86
2018-04-20T09:50:42.266Z,25.91
2018-04-20T09:51:42.314Z,25.95
2018-04-20T09:52:42.211Z,25.92
2018-04-20T09:53:42.316Z,25.89
2018-04-20T09:54:42.361Z,26.03
2018-04-20T09:55:42.215Z,26.06
2018-04-20T09:56:42.262Z,26.25
2018-04-20T09:57:42.329Z,26.44
2018-04-20T09:58:42.257Z,26.49
2018-04-20T09:59:42.261Z,26.64
2018-04-20T10:00:42.261Z,26.58
2018-04-20T10:01:42.260Z,26.70
2018-04-20T10:02:42.330Z,26.74
2018-04-20T10:03:42.261Z,26.75
2018-04-20T10:04:42.305Z,26.67
2018-04-20T10:05:42.305Z,26.88
2018-04-20T10:06:42.363Z,26.67
2018-04-20T10:07:42.381Z,26.78
2018-04-20T10:08:42.350Z,26.62
2018-04-20T10:09:42.357Z,26.55
2018-04-20T10:10:42.261Z,26.51
2018-04-20T10:11:42.261Z,26.60
2018-04-20T10:12:42.241Z,26.88
2018-04-20T10:13:42.359Z,26.88
2018-04-20T10:14:42.271Z,26.78
2018-04-20T10:15:42.313Z,26.71
2018-04-20T10:16:42.209Z,26.67
2018-04-20T10:17:42.232Z,26.51
2018-04-20T10:18:42.205Z,26.59
2018-04-20T10:19:42.211Z,26.96
2018-04-20T10:20:42.211Z,27.22
2018-04-20T10:21:42.241Z,27.51
2018-04-20T10:22:42.327Z,27.78
2018-04-20T10:23:42.329Z,27.91
2018-04-20T10:24:42.315Z,27.89
2018-04-20T10:25:42.371Z,28.00
2018-04-20T10:26:42.367Z,28.11
2018-04-20T10:27:42.353Z,28.18
2018-04-20T10:28:42.379Z,28.37
2018-04-20T10:29:42.374Z,28.47
2018-04-20T10:30:42.349Z,28.37
2018-04-20T10:31:42.350Z,28.35
2018-04-20T10:32:42.318Z,28.09
2018-04-20T10:33:42.362Z,28.11
2018-04-20T10:34:42.375Z,28.22
2018-04-20T10:35:42.410Z,28.17
2018-04-20T10:36:42.347Z,28.29
2018-04-20T10:37:42.254Z,28.28
2018-04-20T10:38:42.288Z,28.20
2018-04-20T10:39:42.311Z,28.18
2018-04-20T10:40:42.329Z,28.35
2018-04-20T10:41:42.315Z,28.55
2018-04-20T10:42:42.352Z,28.61
2018-04-20T10:43:42.356Z,28.90
2018-04-20T10:44:42.316Z,28.82
2018-04-20T10:45:42.379Z,28.83
2018-04-20T10:46:42.336Z,28.94
2018-04-20T10:47:42.386Z,28.86
2018-04-20T10:48:42.443Z,28.99
2018-04-20T10:49:42.323Z,29.13
2018-04-20T10:50:42.357Z,29.37
2018-04-20T10:51:42.336Z,29.37
2018-04-20T10:52:42.393Z,29.65
2018-04-20T10:53:42.278Z,29.57
2018-04-20T10:54:42.296Z,29.37
2018-04-20T10:55:42.284Z,29.21
2018-04-20T10:56:42.404Z,29.25
2018-04-20T10:57:42.268Z,29.27
2018-04-20T10:58:42.289Z,29.31
2018-04-20T10:59:42.363Z,29.40
2018-04-20T11:00:42.270Z,29.54
2018-04-20T11:01:42.340Z,29.69
2018-04-20T11:02:42.366Z,29.37
2018-04-20T11:03:42.425Z,29.35
2018-04-20T11:04:42.384Z,29.40
2018-04-20T11:05:42.361Z,29.40
2018-04-20T11:06:42.329Z,29.43
2018-04-20T11:07:42.270Z,29.18
2018-04-20T11:08:42.368Z,29.27
2018-04-20T11:09:42.332Z,29.09
2018-04-20T11:10:42.347Z,28.94
2018-04-20T11:11:42.346Z,28.77
2018-04-20T11:12:42.347Z,28.82
2018-04-20T11:13:42.372Z,29.01
2018-04-20T11:14:42.392Z,29.09
2018-04-20T11:15:42.398Z,29.09
2018-04-20T11:16:42.400Z,29.32
2018-04-20T11:17:42.276Z,29.48
2018-04-20T11:18:42.341Z,29.81
2018-04-20T11:19:42.418Z,29.87
2018-04-20T11:20:42.334Z,29.57
2018-04-20T11:21:42.282Z,29.75
2018-04-20T11:22:42.286Z,30.10
2018-04-20T11:23:42.439Z,30.30
2018-04-20T11:24:42.397Z,30.54
2018-04-20T11:25:42.339Z,30.79
2018-04-20T11:26:42.363Z,30.68
2018-04-20T11:27:42.348Z,30.31
2018-04-20T11:28:42.282Z,30.15
2018-04-20T11:29:42.337Z,30.08
2018-04-20T11:30:42.404Z,29.94
2018-04-20T11:31:42.425Z,29.95
2018-04-20T11:32:42.353Z,30.01
2018-04-20T11:33:42.292Z,30.06
2018-04-20T11:34:42.302Z,30.21
2018-04-20T11:35:42.342Z,30.20
2018-04-20T11:36:42.357Z,30.24
2018-04-20T11:37:42.286Z,30.21
2018-04-20T11:38:42.405Z,30.26
2018-04-20T11:39:42.360Z,30.41
2018-04-20T11:40:42.414Z,30.48
2018-04-20T11:41:42.387Z,30.45
2018-04-20T11:42:42.383Z,30.57
2018-04-20T11:43:42.370Z,30.35
2018-04-20T11:44:42.344Z,30.42
2018-04-20T11:45:42.472Z,30.20
2018-04-20T11:46:42.295Z,30.02
2018-04-20T11:47:42.379Z,29.86
2018-04-20T11:48:42.297Z,29.99
2018-04-20T11:49:42.374Z,30.06
2018-04-20T11:50:42.382Z,30.16
2018-04-20T11:51:42.385Z,30.12
2018-04-20T11:52:42.412Z,30.43
2018-04-20T11:53:42.427Z,30.65
2018-04-20T11:54:42.295Z,30.64
2018-04-20T11:55:42.427Z,30.65
2018-04-20T11:56:42.360Z,30.66
2018-04-20T11:57:42.428Z,30.50
2018-04-20T11:58:42.437Z,30.53
2018-04-20T11:59:42.419Z,30.23
2018-04-20T12:00:42.357Z,29.94
2018-04-20T12:01:42.374Z,29.75
2018-04-20T12:02:42.424Z,29.68
2018-04-20T12:03:42.405Z,29.80
2018-04-20T12:04:42.436Z,29.90
2018-04-20T12:05:42.367Z,29.98
2018-04-20T12:06:42.408Z,29.72
2018-04-20T12:07:42.309Z,29.75
2018-04-20T12:08:42.383Z,29.84
2018-04-20T12:09:42.403Z,29.80
2018-04-20T12:10:42.305Z,29.46
2018-04-20T12:11:42.428Z,29.50
2018-04-20T12:12:42.413Z,29.75
2018-04-20T12:13:42.441Z,29.76
2018-04-20T12:14:42.415Z,29.90
2018-04-20T12:15:42.441Z,29.94
2018-04-20T12:16:42.431Z,29.55
2018-04-20T12:17:42.383Z,29.65
2018-04-20T12:18:42.414Z,29.81
2018-04-20T12:19:42.412Z,30.10
2018-04-20T12:20:42.322Z,30.21
2018-04-20T12:21:42.333Z,29.88
2018-04-20T12:22:42.381Z,29.61
2018-04-20T12:23:42.317Z,29.69
2018-04-20T12:24:42.335Z,29.92
2018-04-20T12:25:42.433Z,29.94
2018-04-20T12:26:42.385Z,30.08
2018-04-20T12:27:42.327Z,30.28
2018-04-20T12:28:42.448Z,30.45
2018-04-20T12:29:42.324Z,30.20
2018-04-20T12:30:42.447Z,30.31
2018-04-20T12:31:42.452Z,30.19
2018-04-20T12:32:42.451Z,29.84
2018-04-20T12:33:42.518Z,29.77
2018-04-20T12:34:42.325Z,29.81
2018-04-20T12:35:42.517Z,30.08
2018-04-20T12:36:42.427Z,30.15
2018-04-20T12:37:42.418Z,30.37
2018-04-20T12:38:42.361Z,30.58
2018-04-20T12:39:42.427Z,30.61
2018-04-20T12:40:42.439Z,30.64
2018-04-20T12:41:42.469Z,30.64
2018-04-20T12:42:42.431Z,30.69
2018-04-20T12:43:42.362Z,30.61
2018-04-20T12:44:42.438Z,30.41
2018-04-20T12:45:42.429Z,30.27
2018-04-20T12:46:42.429Z,30.34
2018-04-20T12:47:42.441Z,30.32
2018-04-20T12:48:42.463Z,30.05
2018-04-20T12:49:42.373Z,30.09
2018-04-20T12:50:42.400Z,30.20
2018-04-20T12:51:42.465Z,30.23
2018-04-20T12:52:42.452Z,30.09
2018-04-20T12:53:42.431Z,30.03
2018-04-20T12:54:42.343Z,30.13
2018-04-20T12:55:42.369Z,30.06
2018-04-20T12:56:42.451Z,30.20
2018-04-20T12:57:42.369Z,30.17
2018-04-20T12:58:42.374Z,30.05
2018-04-20T12:59:42.437Z,30.17
2018-04-20T13:00:42.373Z,30.24
2018-04-20T13:01:42.444Z,30.41
2018-04-20T13:02:42.411Z,30.54
2018-04-20T13:03:42.447Z,30.55